Accueil
METAR-TAF:

METAR-TAF

Aéroports :

Aéroport de Paris-Charles-de-Gaulle

Paris-Charles De Gaulle, France

latitude: 49-01N, longitude: 002-32E, altitude: 118 m

Observation

Le bulletin a été fait il y a 30 minutes, à 02:30 UTC
Vent 6 kt de nord
Température 11°C
Humidité 66%
Pression 1024 hPa
Visibilité 10 km ou plus
pas de nuages en-dessous de 1500 mètres et pas de cumulonimbus.

METAR: LFPG 080230Z AUTO 01006KT CAVOK 11/05 Q1024 NOSIG

Heure: 05:00 (03:00 UTC)

Prévision

Le bulletin a été fait il y a 4 heures et 0 minutes, à 23:00 UTC
Prévision valable du 08 à 00 UTC au 09 à 06 UTC
Vent 5 kt de nord-est
Visibilité 10 km ou plus
pas de nuages en-dessous de 1500 mètres et pas de cumulonimbus.

TAF: LFPG 072300Z 0800/0906 04005KT CAVOK TX23/0814Z TN10/0806Z

Observations et prévisions météorologiques de plus de 4000 aéroports (messages METAR et TAF).

Les stations disponibles sont représentées par des disques jaunes et rouges sur la carte.

Passer la souris dessus pour voir le nom de la station.

Cliquer dessus pour voir les observations et prévisions météorologiques.

Pour changer de carte: cliquez sur les boutons verts avec une croix noire pour zoomer, sur le bouton vert avec un tiret pour effectuer un zoom arrière, ou sur les flèches vertes pour les cartes adjacentes.


METAR-TAF: